createdAt,value
2018-09-20T00:00:52.676Z,27.51
2018-09-20T00:01:52.682Z,27.47
2018-09-20T00:02:52.689Z,27.54
2018-09-20T00:03:52.695Z,27.55
2018-09-20T00:04:52.702Z,27.62
2018-09-20T00:05:52.708Z,27.54
2018-09-20T00:06:52.717Z,27.59
2018-09-20T00:07:52.722Z,27.50
2018-09-20T00:08:52.733Z,27.54
2018-09-20T00:09:52.735Z,27.51
2018-09-20T00:10:52.741Z,27.50
2018-09-20T00:11:52.748Z,27.55
2018-09-20T00:12:52.758Z,27.51
2018-09-20T00:13:52.761Z,27.62
2018-09-20T00:14:52.768Z,27.57
2018-09-20T00:15:52.775Z,27.47
2018-09-20T00:16:52.789Z,27.54
2018-09-20T00:17:52.787Z,27.54
2018-09-20T00:18:52.795Z,27.49
2018-09-20T00:19:52.800Z,27.54
2018-09-20T00:20:52.807Z,27.49
2018-09-20T00:21:52.813Z,27.63
2018-09-20T00:22:52.821Z,27.55
2018-09-20T00:23:52.836Z,27.47
2018-09-20T00:24:52.834Z,27.50
2018-09-20T00:25:52.838Z,27.51
2018-09-20T00:26:52.846Z,27.51
2018-09-20T00:27:52.853Z,27.50
2018-09-20T00:28:52.859Z,27.54
2018-09-20T00:29:52.866Z,27.51
2018-09-20T00:30:52.873Z,27.50
2018-09-20T00:31:52.879Z,27.55
2018-09-20T00:32:52.885Z,27.50
2018-09-20T00:33:52.892Z,27.49
2018-09-20T00:34:52.902Z,27.49
2018-09-20T00:35:52.906Z,27.54
2018-09-20T00:36:52.912Z,27.50
2018-09-20T00:37:52.922Z,27.51
2018-09-20T00:38:52.925Z,27.54
2018-09-20T00:39:52.932Z,27.59
2018-09-20T00:40:52.938Z,27.54
2018-09-20T00:41:52.945Z,27.54
2018-09-20T00:42:52.952Z,27.55
2018-09-20T00:43:52.958Z,27.46
2018-09-20T00:44:52.965Z,27.57
2018-09-20T00:45:52.971Z,27.51
2018-09-20T00:46:52.981Z,27.47
2018-09-20T00:47:52.991Z,27.57
2018-09-20T00:48:52.991Z,27.51
2018-09-20T00:49:52.997Z,27.47
2018-09-20T00:50:53.005Z,27.57
2018-09-20T00:51:53.011Z,27.51
2018-09-20T00:52:53.017Z,27.51
2018-09-20T00:53:53.024Z,27.55
2018-09-20T00:54:53.031Z,27.57
2018-09-20T00:55:53.037Z,27.47
2018-09-20T00:56:53.045Z,27.54
2018-09-20T00:57:53.050Z,27.50
2018-09-20T00:58:53.057Z,27.49
2018-09-20T00:59:53.066Z,27.54
2018-09-20T01:00:53.069Z,27.55
2018-09-20T01:01:53.077Z,27.49
2018-09-20T01:02:53.083Z,27.54
2018-09-20T01:03:53.090Z,27.54
2018-09-20T01:04:53.095Z,27.55
2018-09-20T01:05:53.103Z,27.51
2018-09-20T01:06:53.109Z,27.49
2018-09-20T01:07:53.116Z,27.51
2018-09-20T01:08:53.123Z,27.51
2018-09-20T01:09:53.128Z,27.49
2018-09-20T01:10:53.135Z,27.49
2018-09-20T01:11:53.142Z,27.54
2018-09-20T01:12:53.148Z,27.49
2018-09-20T01:13:53.155Z,27.47
2018-09-20T01:14:53.162Z,27.50
2018-09-20T01:15:53.169Z,27.44
2018-09-20T01:16:53.176Z,27.51
2018-09-20T01:17:53.181Z,27.54
2018-09-20T01:18:53.189Z,27.54
2018-09-20T01:19:53.195Z,27.54
2018-09-20T01:20:53.201Z,27.47
2018-09-20T01:21:53.207Z,27.50
2018-09-20T01:22:53.217Z,27.59
2018-09-20T01:23:53.221Z,27.50
2018-09-20T01:24:53.227Z,27.47
2018-09-20T01:25:53.235Z,27.46
2018-09-20T01:26:53.241Z,27.50
2018-09-20T01:27:53.248Z,27.51
2018-09-20T01:28:53.254Z,27.44
2018-09-20T01:29:53.263Z,27.54
2018-09-20T01:30:53.267Z,27.50
2018-09-20T01:31:53.333Z,27.54
2018-09-20T01:32:53.280Z,27.49
2018-09-20T01:33:53.289Z,27.50
2018-09-20T01:34:53.294Z,27.51
2018-09-20T01:35:53.309Z,27.46
2018-09-20T01:36:53.304Z,27.46
2018-09-20T01:37:53.313Z,27.54
2018-09-20T01:38:53.320Z,27.49
2018-09-20T01:39:53.329Z,27.54
2018-09-20T01:40:53.333Z,27.50
2018-09-20T01:41:53.340Z,27.49
2018-09-20T01:42:53.346Z,27.50
2018-09-20T01:43:53.353Z,27.51
2018-09-20T01:44:53.359Z,27.50
2018-09-20T01:45:53.366Z,27.50
2018-09-20T01:46:53.372Z,27.50
2018-09-20T01:47:53.380Z,27.59
2018-09-20T01:48:53.389Z,27.54
2018-09-20T01:49:53.393Z,27.49
2018-09-20T01:50:53.399Z,27.49
2018-09-20T01:51:53.405Z,27.50
2018-09-20T01:52:53.411Z,27.50
2018-09-20T01:53:53.418Z,27.51
2018-09-20T01:54:53.424Z,27.54
2018-09-20T01:55:53.432Z,27.46
2018-09-20T01:56:53.437Z,27.49
2018-09-20T01:57:53.444Z,27.47
2018-09-20T01:58:53.452Z,27.46
2018-09-20T01:59:53.458Z,27.46
2018-09-20T02:00:53.463Z,27.50
2018-09-20T02:01:53.471Z,27.46
2018-09-20T02:02:53.477Z,27.46
2018-09-20T02:03:53.484Z,27.50
2018-09-20T02:04:53.490Z,27.51
2018-09-20T02:05:53.501Z,27.50
2018-09-20T02:06:53.503Z,27.47
2018-09-20T02:07:53.511Z,27.43
2018-09-20T02:08:53.517Z,27.46
2018-09-20T02:09:53.529Z,27.40
2018-09-20T02:10:53.536Z,27.39
2018-09-20T02:11:53.538Z,27.36
2018-09-20T02:12:53.542Z,27.44
2018-09-20T02:13:53.550Z,27.40
2018-09-20T02:14:53.558Z,27.40
2018-09-20T02:15:53.563Z,27.41
2018-09-20T02:16:53.569Z,27.49
2018-09-20T02:17:53.575Z,27.41
2018-09-20T02:18:53.582Z,27.47
2018-09-20T02:19:53.589Z,27.41
2018-09-20T02:20:53.595Z,27.41
2018-09-20T02:21:53.601Z,27.49
2018-09-20T02:22:53.608Z,27.37
2018-09-20T02:23:53.618Z,27.40
2018-09-20T02:24:53.621Z,27.41
2018-09-20T02:25:53.627Z,27.41
2018-09-20T02:26:53.634Z,27.40
2018-09-20T02:27:53.642Z,27.43
2018-09-20T02:28:53.647Z,27.41
2018-09-20T02:29:53.654Z,27.41
2018-09-20T02:30:53.661Z,27.32
2018-09-20T02:31:53.667Z,27.29
2018-09-20T02:32:53.673Z,27.36
2018-09-20T02:33:53.681Z,27.34
2018-09-20T02:34:53.688Z,27.31
2018-09-20T02:35:53.695Z,27.37
2018-09-20T02:36:53.701Z,27.36
2018-09-20T02:37:53.706Z,27.31
2018-09-20T02:38:53.712Z,27.37
2018-09-20T02:39:53.720Z,27.31
2018-09-20T02:40:53.725Z,27.32
2018-09-20T02:41:53.737Z,27.32
2018-09-20T02:42:53.739Z,27.36
2018-09-20T02:43:53.746Z,27.36
2018-09-20T02:44:53.754Z,27.25
2018-09-20T02:45:53.758Z,27.27
2018-09-20T02:46:53.765Z,27.32
2018-09-20T02:47:53.772Z,27.28
2018-09-20T02:48:53.779Z,27.28
2018-09-20T02:49:53.784Z,27.27
2018-09-20T02:50:53.791Z,27.19
2018-09-20T02:51:53.799Z,27.27
2018-09-20T02:52:53.803Z,27.22
2018-09-20T02:53:53.808Z,27.25
2018-09-20T02:54:53.818Z,27.22
2018-09-20T02:55:53.824Z,27.25
2018-09-20T02:56:53.831Z,27.19
2018-09-20T02:57:53.836Z,27.24
2018-09-20T02:58:53.911Z,27.27
2018-09-20T02:59:53.857Z,27.25
2018-09-20T03:00:53.856Z,27.19
2018-09-20T03:01:53.862Z,27.21
2018-09-20T03:02:53.868Z,27.24
2018-09-20T03:03:53.875Z,27.25
2018-09-20T03:04:53.880Z,27.19
2018-09-20T03:05:53.887Z,27.19
2018-09-20T03:06:53.915Z,27.19
2018-09-20T03:07:53.900Z,27.22
2018-09-20T03:08:53.905Z,27.24
2018-09-20T03:09:53.917Z,27.25
2018-09-20T03:10:53.919Z,27.14
2018-09-20T03:11:53.925Z,27.21
2018-09-20T03:12:53.935Z,27.24
2018-09-20T03:13:53.938Z,27.19
2018-09-20T03:14:53.947Z,27.22
2018-09-20T03:15:53.954Z,27.19
2018-09-20T03:16:53.955Z,27.19
2018-09-20T03:17:53.963Z,27.13
2018-09-20T03:18:53.970Z,27.14
2018-09-20T03:19:53.976Z,27.13
2018-09-20T03:20:53.988Z,27.17
2018-09-20T03:21:53.988Z,27.09
2018-09-20T03:22:54.006Z,27.10
2018-09-20T03:23:54.006Z,27.19
2018-09-20T03:24:54.008Z,27.14
2018-09-20T03:25:54.019Z,27.13
2018-09-20T03:26:54.023Z,27.13
2018-09-20T03:27:54.027Z,27.13
2018-09-20T03:28:54.033Z,27.18
2018-09-20T03:29:54.040Z,27.13
2018-09-20T03:30:54.128Z,27.09
2018-09-20T03:31:54.060Z,27.07
2018-09-20T03:32:54.058Z,27.12
2018-09-20T03:33:54.065Z,27.12
2018-09-20T03:34:54.087Z,27.10
2018-09-20T03:35:54.078Z,27.09
2018-09-20T03:36:54.082Z,27.13
2018-09-20T03:37:54.090Z,27.14
2018-09-20T03:38:54.096Z,27.07
2018-09-20T03:39:54.109Z,27.10
2018-09-20T03:40:54.108Z,27.17
2018-09-20T03:41:54.133Z,27.03
2018-09-20T03:42:54.121Z,27.10
2018-09-20T03:43:54.130Z,27.06
2018-09-20T03:44:54.136Z,27.12
2018-09-20T03:45:54.141Z,27.12
2018-09-20T03:46:54.149Z,27.06
2018-09-20T03:47:54.153Z,27.09
2018-09-20T03:48:54.159Z,27.10
2018-09-20T03:49:54.166Z,27.10
2018-09-20T03:50:54.172Z,27.13
2018-09-20T03:51:54.184Z,27.09
2018-09-20T03:52:54.185Z,27.13
2018-09-20T03:53:54.191Z,27.06
2018-09-20T03:54:54.205Z,27.09
2018-09-20T03:55:54.204Z,27.06
2018-09-20T03:56:54.209Z,27.10
2018-09-20T03:57:54.216Z,27.06
2018-09-20T03:58:54.222Z,27.02
2018-09-20T03:59:54.228Z,27.09
2018-09-20T04:00:54.233Z,27.02
2018-09-20T04:01:54.241Z,27.00
2018-09-20T04:02:54.251Z,26.99
2018-09-20T04:03:54.252Z,27.02
2018-09-20T04:04:54.259Z,26.95
2018-09-20T04:05:54.267Z,27.04
2018-09-20T04:06:54.272Z,26.97
2018-09-20T04:07:54.279Z,26.95
2018-09-20T04:08:54.284Z,26.99
2018-09-20T04:09:54.291Z,26.95
2018-09-20T04:10:54.297Z,26.97
2018-09-20T04:11:54.304Z,27.02
2018-09-20T04:12:54.310Z,26.94
2018-09-20T04:13:54.318Z,26.95
2018-09-20T04:14:54.325Z,26.92
2018-09-20T04:15:54.330Z,26.88
2018-09-20T04:16:54.334Z,26.89
2018-09-20T04:17:54.341Z,26.99
2018-09-20T04:18:54.348Z,26.91
2018-09-20T04:19:54.355Z,26.97
2018-09-20T04:20:54.361Z,26.95
2018-09-20T04:21:54.366Z,26.97
2018-09-20T04:22:54.372Z,26.94
2018-09-20T04:23:54.382Z,26.87
2018-09-20T04:24:54.385Z,26.94
2018-09-20T04:25:54.391Z,26.95
2018-09-20T04:26:54.396Z,26.92
2018-09-20T04:27:54.404Z,26.95
2018-09-20T04:28:54.409Z,26.94
2018-09-20T04:29:54.416Z,26.91
2018-09-20T04:30:54.422Z,26.88
2018-09-20T04:31:54.500Z,26.89
2018-09-20T04:32:54.434Z,26.94
2018-09-20T04:33:54.440Z,26.97
2018-09-20T04:34:54.469Z,26.89
2018-09-20T04:35:54.455Z,26.87
2018-09-20T04:36:54.459Z,26.87
2018-09-20T04:37:54.465Z,26.91
2018-09-20T04:38:54.472Z,26.95
2018-09-20T04:39:54.480Z,27.02
2018-09-20T04:40:54.484Z,27.04
2018-09-20T04:41:54.491Z,27.06
2018-09-20T04:42:54.501Z,27.04
2018-09-20T04:43:54.506Z,27.03
2018-09-20T04:44:54.509Z,27.04
2018-09-20T04:45:54.516Z,27.07
2018-09-20T04:46:54.522Z,27.13
2018-09-20T04:47:54.529Z,27.04
2018-09-20T04:48:54.541Z,27.10
2018-09-20T04:49:54.541Z,27.09
2018-09-20T04:50:54.551Z,27.10
2018-09-20T04:51:54.554Z,27.13
2018-09-20T04:52:54.559Z,27.07
2018-09-20T04:53:54.570Z,27.14
2018-09-20T04:54:54.573Z,27.14
2018-09-20T04:55:54.579Z,27.18
2018-09-20T04:56:54.587Z,27.19
2018-09-20T04:57:54.590Z,27.24
2018-09-20T04:58:54.598Z,27.19
2018-09-20T04:59:54.670Z,27.25
2018-09-20T05:00:54.612Z,27.22
2018-09-20T05:01:54.621Z,27.25
2018-09-20T05:02:54.623Z,27.32
2018-09-20T05:03:54.630Z,27.34
2018-09-20T05:04:54.639Z,27.29
2018-09-20T05:05:54.644Z,27.32
2018-09-20T05:06:54.649Z,27.34
2018-09-20T05:07:54.656Z,27.32
2018-09-20T05:08:54.661Z,27.34
2018-09-20T05:09:54.668Z,27.40
2018-09-20T05:10:54.674Z,27.43
2018-09-20T05:11:54.683Z,27.46
2018-09-20T05:12:54.687Z,27.40
2018-09-20T05:13:54.693Z,27.43
2018-09-20T05:14:54.701Z,27.40
2018-09-20T05:15:54.706Z,27.46
2018-09-20T05:16:54.712Z,27.39
2018-09-20T05:17:54.719Z,27.51
2018-09-20T05:18:54.725Z,27.49
2018-09-20T05:19:54.732Z,27.55
2018-09-20T05:20:54.739Z,27.50
2018-09-20T05:21:54.744Z,27.55
2018-09-20T05:22:54.754Z,27.57
2018-09-20T05:23:54.764Z,27.55
2018-09-20T05:24:54.766Z,27.63
2018-09-20T05:25:54.771Z,27.54
2018-09-20T05:26:54.778Z,27.54
2018-09-20T05:27:54.788Z,27.59
2018-09-20T05:28:54.790Z,27.65
2018-09-20T05:29:54.797Z,27.66
2018-09-20T05:30:54.804Z,27.60
2018-09-20T05:31:54.810Z,27.66
2018-09-20T05:32:54.819Z,27.74
2018-09-20T05:33:54.823Z,27.70
2018-09-20T05:34:54.830Z,27.75
2018-09-20T05:35:54.836Z,27.75
2018-09-20T05:36:54.844Z,27.75
2018-09-20T05:37:54.853Z,27.66
2018-09-20T05:38:54.856Z,27.75
2018-09-20T05:39:54.863Z,27.79
2018-09-20T05:40:54.870Z,27.77
2018-09-20T05:41:54.879Z,27.79
2018-09-20T05:42:54.884Z,27.66
2018-09-20T05:43:54.890Z,27.78
2018-09-20T05:44:54.905Z,27.81
2018-09-20T05:45:54.902Z,27.74
2018-09-20T05:46:54.912Z,27.87
2018-09-20T05:47:54.924Z,27.87
2018-09-20T05:48:54.924Z,27.82
2018-09-20T05:49:54.929Z,27.90
2018-09-20T05:50:54.993Z,27.90
2018-09-20T05:51:54.943Z,27.72
2018-09-20T05:52:54.949Z,27.84
2018-09-20T05:53:54.957Z,27.88
2018-09-20T05:54:54.964Z,27.88
2018-09-20T05:55:54.969Z,27.87
2018-09-20T05:56:54.978Z,27.74
2018-09-20T05:57:54.983Z,27.85
2018-09-20T05:58:54.991Z,27.85
2018-09-20T05:59:54.997Z,27.85
2018-09-20T06:00:55.003Z,27.81
2018-09-20T06:01:55.010Z,27.70
2018-09-20T06:02:55.017Z,27.84
2018-09-20T06:03:55.025Z,27.81
2018-09-20T06:04:55.030Z,27.85
2018-09-20T06:05:55.061Z,27.87
2018-09-20T06:06:55.046Z,27.90
2018-09-20T06:07:55.058Z,27.70
2018-09-20T06:08:55.057Z,27.93
2018-09-20T06:09:55.065Z,27.77
2018-09-20T06:10:55.077Z,27.82
2018-09-20T06:11:55.079Z,27.82
2018-09-20T06:12:55.086Z,27.78
2018-09-20T06:13:55.091Z,27.75
2018-09-20T06:14:55.101Z,27.79
2018-09-20T06:15:55.105Z,27.94
2018-09-20T06:16:55.112Z,27.81
2018-09-20T06:17:55.118Z,27.90
2018-09-20T06:18:55.124Z,27.92
2018-09-20T06:19:55.132Z,27.94
2018-09-20T06:20:55.138Z,27.96
2018-09-20T06:21:55.194Z,27.90
2018-09-20T06:22:55.155Z,27.94
2018-09-20T06:23:55.165Z,27.93
2018-09-20T06:24:55.164Z,27.96
2018-09-20T06:25:55.172Z,28.09
2018-09-20T06:26:55.180Z,28.07
2018-09-20T06:27:55.187Z,28.09
2018-09-20T06:28:55.193Z,28.07
2018-09-20T06:29:55.199Z,28.15
2018-09-20T06:30:55.206Z,28.12
2018-09-20T06:31:55.214Z,28.14
2018-09-20T06:32:55.221Z,28.15
2018-09-20T06:33:55.228Z,28.18
2018-09-20T06:34:55.323Z,28.18
2018-09-20T06:35:55.245Z,28.21
2018-09-20T06:36:55.301Z,28.25
2018-09-20T06:37:55.255Z,28.22
2018-09-20T06:38:55.263Z,28.27
2018-09-20T06:39:55.269Z,28.34
2018-09-20T06:40:55.279Z,28.30
2018-09-20T06:41:55.283Z,28.27
2018-09-20T06:42:55.290Z,28.29
2018-09-20T06:43:55.298Z,28.37
2018-09-20T06:44:55.318Z,28.39
2018-09-20T06:45:55.312Z,28.37
2018-09-20T06:46:55.317Z,28.39
2018-09-20T06:47:55.325Z,28.34
2018-09-20T06:48:55.331Z,28.39
2018-09-20T06:49:55.339Z,28.37
2018-09-20T06:50:55.346Z,28.39
2018-09-20T06:51:55.352Z,28.37
2018-09-20T06:52:55.360Z,28.52
2018-09-20T06:53:55.366Z,28.49
2018-09-20T06:54:55.374Z,28.49
2018-09-20T06:55:55.382Z,28.44
2018-09-20T06:56:55.388Z,28.51
2018-09-20T06:57:55.396Z,28.39
2018-09-20T06:58:55.403Z,28.54
2018-09-20T06:59:55.411Z,28.58
2018-09-20T07:00:55.416Z,28.59
2018-09-20T07:01:55.424Z,28.49
2018-09-20T07:02:55.478Z,28.59
2018-09-20T07:03:55.438Z,28.56
2018-09-20T07:04:55.445Z,28.56
2018-09-20T07:05:55.454Z,28.58
2018-09-20T07:06:55.461Z,28.56
2018-09-20T07:07:55.470Z,28.55
2018-09-20T07:08:55.473Z,28.51
2018-09-20T07:09:55.481Z,28.59
2018-09-20T07:10:55.487Z,28.59
2018-09-20T07:11:55.496Z,28.58
2018-09-20T07:12:55.502Z,28.58
2018-09-20T07:13:55.510Z,28.58
2018-09-20T07:14:55.517Z,28.58
2018-09-20T07:15:55.525Z,28.61
2018-09-20T07:16:55.531Z,28.59
2018-09-20T07:17:55.538Z,28.64
2018-09-20T07:18:55.546Z,28.55
2018-09-20T07:19:55.556Z,28.55
2018-09-20T07:20:55.559Z,28.56
2018-09-20T07:21:55.568Z,28.55
2018-09-20T07:22:55.592Z,28.61
2018-09-20T07:23:55.582Z,28.62
2018-09-20T07:24:55.590Z,28.58
2018-09-20T07:25:55.597Z,28.61
2018-09-20T07:26:55.604Z,28.61
2018-09-20T07:27:55.611Z,28.56
2018-09-20T07:28:55.618Z,28.68
2018-09-20T07:29:55.625Z,28.52
2018-09-20T07:30:55.633Z,28.56
2018-09-20T07:31:55.665Z,28.59
2018-09-20T07:32:55.794Z,28.51
2018-09-20T07:33:55.666Z,28.61
2018-09-20T07:34:55.660Z,28.56
2018-09-20T07:35:55.670Z,28.55
2018-09-20T07:36:55.675Z,28.52
2018-09-20T07:37:55.683Z,28.54
2018-09-20T07:38:55.689Z,28.51
2018-09-20T07:39:55.698Z,28.40
2018-09-20T07:40:55.704Z,28.51
2018-09-20T07:41:55.713Z,28.48
2018-09-20T07:42:55.720Z,28.43
2018-09-20T07:43:55.729Z,28.41
2018-09-20T07:44:55.731Z,28.41
2018-09-20T07:45:55.742Z,28.43
2018-09-20T07:46:55.749Z,28.48
2018-09-20T07:47:55.758Z,28.41
2018-09-20T07:48:55.766Z,28.43
2018-09-20T07:49:55.769Z,28.41
2018-09-20T07:50:55.775Z,28.44
2018-09-20T07:51:55.783Z,28.43
2018-09-20T07:52:55.790Z,28.43
2018-09-20T07:53:55.803Z,28.46
2018-09-20T07:54:55.812Z,28.49
2018-09-20T07:55:55.817Z,28.44
2018-09-20T07:56:55.836Z,28.48
2018-09-20T07:57:55.824Z,28.41
2018-09-20T07:58:55.834Z,28.43
2018-09-20T07:59:55.844Z,28.43
2018-09-20T08:00:55.849Z,28.54
2018-09-20T08:01:55.896Z,28.44
2018-09-20T08:02:55.865Z,28.39
2018-09-20T08:03:55.869Z,28.49
2018-09-20T08:04:55.877Z,28.41
2018-09-20T08:05:55.882Z,28.41
2018-09-20T08:06:55.909Z,28.44
2018-09-20T08:07:55.897Z,28.41
2018-09-20T08:08:55.907Z,28.52
2018-09-20T08:09:55.913Z,28.41
2018-09-20T08:10:55.920Z,28.37
2018-09-20T08:11:55.925Z,28.44
2018-09-20T08:12:55.957Z,28.51
2018-09-20T08:13:55.944Z,28.48
2018-09-20T08:14:55.947Z,28.46
2018-09-20T08:15:55.984Z,28.48
2018-09-20T08:16:55.960Z,28.40
2018-09-20T08:17:55.967Z,28.51
2018-09-20T08:18:55.976Z,28.48
2018-09-20T08:19:55.984Z,28.52
2018-09-20T08:20:55.994Z,28.43
2018-09-20T08:21:56.017Z,28.41
2018-09-20T08:22:56.003Z,28.54
2018-09-20T08:23:56.012Z,28.52
2018-09-20T08:24:56.019Z,28.52
2018-09-20T08:25:56.032Z,28.54
2018-09-20T08:26:56.034Z,28.54
2018-09-20T08:27:56.106Z,28.51
2018-09-20T08:28:56.048Z,28.58
2018-09-20T08:29:56.055Z,28.59
2018-09-20T08:30:56.063Z,28.56
2018-09-20T08:31:56.072Z,28.56
2018-09-20T08:32:56.077Z,28.59
2018-09-20T08:33:56.084Z,28.54
2018-09-20T08:34:56.093Z,28.59
2018-09-20T08:35:56.103Z,28.64
2018-09-20T08:36:56.105Z,28.56
2018-09-20T08:37:56.119Z,28.61
2018-09-20T08:38:56.145Z,28.52
2018-09-20T08:39:56.126Z,28.61
2018-09-20T08:40:56.136Z,28.61
2018-09-20T08:41:56.139Z,28.56
2018-09-20T08:42:56.155Z,28.58
2018-09-20T08:43:56.161Z,28.52
2018-09-20T08:44:56.164Z,28.56
2018-09-20T08:45:56.170Z,28.64
2018-09-20T08:46:56.180Z,28.59
2018-09-20T08:47:56.185Z,28.62
2018-09-20T08:48:56.190Z,28.64
2018-09-20T08:49:56.199Z,28.64
2018-09-20T08:50:56.226Z,28.76
2018-09-20T08:51:56.215Z,28.64
2018-09-20T08:52:56.220Z,28.70
2018-09-20T08:53:56.229Z,28.70
2018-09-20T08:54:56.235Z,28.56
2018-09-20T08:55:56.243Z,28.71
2018-09-20T08:56:56.376Z,28.77
2018-09-20T08:57:56.258Z,28.67
2018-09-20T08:58:56.263Z,28.61
2018-09-20T08:59:56.272Z,28.67
2018-09-20T09:00:56.278Z,28.70
2018-09-20T09:01:56.286Z,28.64
2018-09-20T09:02:56.294Z,28.61
2018-09-20T09:03:56.302Z,28.64
2018-09-20T09:04:56.309Z,28.71
2018-09-20T09:05:56.316Z,28.67
2018-09-20T09:06:56.323Z,28.61
2018-09-20T09:07:56.332Z,28.64
2018-09-20T09:08:56.336Z,28.68
2018-09-20T09:09:56.345Z,28.68
2018-09-20T09:10:56.353Z,28.61
2018-09-20T09:11:56.492Z,28.64
2018-09-20T09:12:56.368Z,28.64
2018-09-20T09:13:56.375Z,28.56
2018-09-20T09:14:56.381Z,28.64
2018-09-20T09:15:56.390Z,28.61
2018-09-20T09:16:56.396Z,28.61
2018-09-20T09:17:56.405Z,28.61
2018-09-20T09:18:56.412Z,28.66
2018-09-20T09:19:56.419Z,28.68
2018-09-20T09:20:56.425Z,28.67
2018-09-20T09:21:56.431Z,28.66
2018-09-20T09:22:56.439Z,28.61
2018-09-20T09:23:56.452Z,28.67
2018-09-20T09:24:56.456Z,28.67
2018-09-20T09:25:56.459Z,28.68
2018-09-20T09:26:56.470Z,28.71
2018-09-20T09:27:56.477Z,28.71
2018-09-20T09:28:56.485Z,28.74
2018-09-20T09:29:56.491Z,28.73
2018-09-20T09:30:56.501Z,28.67
2018-09-20T09:31:56.519Z,28.68
2018-09-20T09:32:56.513Z,28.70
2018-09-20T09:33:56.521Z,28.77
2018-09-20T09:34:56.529Z,28.74
2018-09-20T09:35:56.541Z,28.76
2018-09-20T09:36:56.546Z,28.74
2018-09-20T09:37:56.550Z,28.71
2018-09-20T09:38:56.557Z,28.81
2018-09-20T09:39:56.567Z,28.77
2018-09-20T09:40:56.572Z,28.77
2018-09-20T09:41:56.580Z,28.78
2018-09-20T09:42:56.589Z,28.80
2018-09-20T09:43:56.598Z,28.85
2018-09-20T09:44:56.601Z,28.77
2018-09-20T09:45:56.610Z,28.83
2018-09-20T09:46:56.618Z,28.78
2018-09-20T09:47:56.674Z,28.83
2018-09-20T09:48:56.632Z,28.78
2018-09-20T09:49:56.640Z,28.74
2018-09-20T09:50:56.646Z,28.81
2018-09-20T09:51:56.655Z,28.74
2018-09-20T09:52:56.661Z,28.80
2018-09-20T09:53:56.668Z,28.76
2018-09-20T09:54:56.730Z,28.85
2018-09-20T09:55:56.694Z,28.73
2018-09-20T09:56:56.691Z,28.78
2018-09-20T09:57:56.699Z,28.85
2018-09-20T09:58:56.715Z,28.83
2018-09-20T09:59:56.717Z,28.77
2018-09-20T10:00:56.719Z,28.83
2018-09-20T10:01:56.728Z,28.86
2018-09-20T10:02:56.739Z,28.86
2018-09-20T10:03:56.747Z,28.83
2018-09-20T10:04:56.750Z,28.80
2018-09-20T10:05:56.758Z,28.88
2018-09-20T10:06:56.826Z,28.81
2018-09-20T10:07:56.775Z,28.89
2018-09-20T10:08:56.780Z,28.78
2018-09-20T10:09:56.792Z,28.83
2018-09-20T10:10:56.796Z,28.83
2018-09-20T10:11:56.802Z,28.86
2018-09-20T10:12:56.809Z,28.83
2018-09-20T10:13:56.821Z,28.85
2018-09-20T10:14:56.828Z,28.81
2018-09-20T10:15:56.833Z,28.81
2018-09-20T10:16:56.842Z,28.85
2018-09-20T10:17:56.848Z,28.92
2018-09-20T10:18:56.856Z,28.83
2018-09-20T10:19:56.963Z,28.86
2018-09-20T10:20:56.870Z,28.92
2018-09-20T10:21:56.877Z,28.95
2018-09-20T10:22:56.888Z,28.88
2018-09-20T10:23:56.909Z,28.93
2018-09-20T10:24:56.906Z,28.95
2018-09-20T10:25:56.908Z,28.95
2018-09-20T10:26:56.914Z,28.92
2018-09-20T10:27:56.937Z,28.90
2018-09-20T10:28:56.930Z,28.92
2018-09-20T10:29:56.938Z,28.92
2018-09-20T10:30:56.946Z,28.88
2018-09-20T10:31:56.954Z,28.92
2018-09-20T10:32:56.958Z,28.89
2018-09-20T10:33:56.991Z,28.93
2018-09-20T10:34:56.976Z,28.90
2018-09-20T10:35:56.985Z,28.92
2018-09-20T10:36:56.991Z,28.98
2018-09-20T10:37:56.997Z,28.90
2018-09-20T10:38:57.006Z,28.92
2018-09-20T10:39:57.014Z,28.95
2018-09-20T10:40:57.022Z,28.95
2018-09-20T10:41:57.028Z,28.98
2018-09-20T10:42:57.036Z,28.95
2018-09-20T10:43:57.044Z,28.92
2018-09-20T10:44:57.054Z,28.96
2018-09-20T10:45:57.058Z,28.96
2018-09-20T10:46:57.065Z,28.93
2018-09-20T10:47:57.074Z,28.98
2018-09-20T10:48:57.081Z,29.00
2018-09-20T10:49:57.087Z,29.02
2018-09-20T10:50:57.096Z,28.90
2018-09-20T10:51:57.104Z,28.95
2018-09-20T10:52:57.111Z,29.02
2018-09-20T10:53:57.119Z,28.90
2018-09-20T10:54:57.130Z,28.95
2018-09-20T10:55:57.134Z,29.06
2018-09-20T10:56:57.150Z,29.04
2018-09-20T10:57:57.148Z,29.09
2018-09-20T10:58:57.163Z,29.09
2018-09-20T10:59:57.167Z,29.02
2018-09-20T11:00:57.177Z,29.11
2018-09-20T11:01:57.181Z,29.15
2018-09-20T11:02:57.217Z,29.12
2018-09-20T11:03:57.198Z,29.09
2018-09-20T11:04:57.202Z,29.05
2018-09-20T11:05:57.210Z,29.12
2018-09-20T11:06:57.218Z,29.21
2018-09-20T11:07:57.234Z,29.11
2018-09-20T11:08:57.230Z,29.14
2018-09-20T11:09:57.248Z,29.14
2018-09-20T11:10:57.288Z,29.19
2018-09-20T11:11:57.257Z,29.18
2018-09-20T11:12:57.262Z,29.16
2018-09-20T11:13:57.270Z,29.24
2018-09-20T11:14:57.285Z,29.24
2018-09-20T11:15:57.287Z,29.24
2018-09-20T11:16:57.291Z,29.23
2018-09-20T11:17:57.300Z,29.27
2018-09-20T11:18:57.309Z,29.30
2018-09-20T11:19:57.317Z,29.27
2018-09-20T11:20:57.334Z,29.30
2018-09-20T11:21:57.330Z,29.21
2018-09-20T11:22:57.340Z,29.31
2018-09-20T11:23:57.347Z,29.26
2018-09-20T11:24:57.354Z,29.18
2018-09-20T11:25:57.419Z,29.26
2018-09-20T11:26:57.370Z,29.27
2018-09-20T11:27:57.376Z,29.14
2018-09-20T11:28:57.384Z,29.26
2018-09-20T11:29:57.403Z,29.30
2018-09-20T11:30:57.403Z,29.31
2018-09-20T11:31:57.415Z,29.21
2018-09-20T11:32:57.416Z,29.28
2018-09-20T11:33:57.422Z,29.23
2018-09-20T11:34:57.430Z,29.26
2018-09-20T11:35:57.440Z,29.27
2018-09-20T11:36:57.445Z,29.28
2018-09-20T11:37:57.454Z,29.30
2018-09-20T11:38:57.459Z,29.26
2018-09-20T11:39:57.470Z,29.30
2018-09-20T11:40:57.478Z,29.24
2018-09-20T11:41:57.485Z,29.27
2018-09-20T11:42:57.494Z,29.31
2018-09-20T11:43:57.501Z,29.31
2018-09-20T11:44:57.516Z,29.27
2018-09-20T11:45:57.517Z,29.27
2018-09-20T11:46:57.522Z,29.28
2018-09-20T11:47:57.531Z,29.30
2018-09-20T11:48:57.538Z,29.31
2018-09-20T11:49:57.547Z,29.34
2018-09-20T11:50:57.556Z,29.28
2018-09-20T11:51:57.561Z,29.33
2018-09-20T11:52:57.570Z,29.24
2018-09-20T11:53:57.581Z,29.31
2018-09-20T11:54:57.588Z,29.30
2018-09-20T11:55:57.595Z,29.26
2018-09-20T11:56:57.601Z,29.30
2018-09-20T11:57:57.609Z,29.30
2018-09-20T11:58:57.617Z,29.28
2018-09-20T11:59:57.625Z,29.31
2018-09-20T12:00:57.632Z,29.27
2018-09-20T12:01:57.727Z,29.30
2018-09-20T12:02:57.653Z,29.28
2018-09-20T12:03:57.655Z,29.33
2018-09-20T12:04:57.663Z,29.31
2018-09-20T12:05:57.674Z,29.28
2018-09-20T12:06:57.679Z,29.28
2018-09-20T12:07:57.687Z,29.28
2018-09-20T12:08:57.693Z,29.31
2018-09-20T12:09:57.704Z,29.30
2018-09-20T12:10:57.708Z,29.28
2018-09-20T12:11:57.718Z,29.26
2018-09-20T12:12:57.724Z,29.43
2018-09-20T12:13:57.735Z,29.28
2018-09-20T12:14:57.738Z,29.26
2018-09-20T12:15:57.749Z,29.30
2018-09-20T12:16:57.757Z,29.28
2018-09-20T12:17:57.764Z,29.28
2018-09-20T12:18:57.771Z,29.31
2018-09-20T12:19:57.814Z,29.27
2018-09-20T12:20:57.787Z,29.30
2018-09-20T12:21:57.801Z,29.30
2018-09-20T12:22:57.802Z,29.30
2018-09-20T12:23:57.810Z,29.36
2018-09-20T12:24:57.819Z,29.31
2018-09-20T12:25:57.898Z,29.30
2018-09-20T12:26:57.831Z,29.31
2018-09-20T12:27:57.842Z,29.26
2018-09-20T12:28:57.851Z,29.33
2018-09-20T12:29:57.857Z,29.30
2018-09-20T12:30:57.864Z,29.33
2018-09-20T12:31:57.971Z,29.26
2018-09-20T12:32:57.921Z,29.30
2018-09-20T12:33:57.888Z,29.30
2018-09-20T12:34:57.897Z,29.30
2018-09-20T12:35:57.966Z,29.28
2018-09-20T12:36:57.914Z,29.28
2018-09-20T12:37:57.948Z,29.33
2018-09-20T12:38:57.929Z,29.28
2018-09-20T12:39:57.937Z,29.31
2018-09-20T12:40:57.941Z,29.31
2018-09-20T12:41:57.950Z,29.31
2018-09-20T12:42:58.047Z,29.30
2018-09-20T12:43:57.965Z,29.21
2018-09-20T12:44:57.973Z,29.24
2018-09-20T12:45:57.979Z,29.24
2018-09-20T12:46:57.989Z,29.26
2018-09-20T12:47:57.999Z,29.26
2018-09-20T12:48:58.004Z,29.27
2018-09-20T12:49:58.011Z,29.33
2018-09-20T12:50:58.020Z,29.31
2018-09-20T12:51:58.029Z,29.18
2018-09-20T12:52:58.037Z,29.23